Time;durP1;ratioP1;P1;durP2;ratioP2;P2;SDS_P1;SDS_P2;PMS_P1;PMS_P2;Temp;Humidity;BMP_temperature;BMP_pressure;BME280_temperature;BME280_humidity;BME280_pressure;Samples;Min_cycle;Max_cycle;Signal;HPM_P1;HPM_P2
2023/11/24 00:01:06;;;;;;;24.10;13.50;;;1.80;99.90;;;;;;4194226;28;20765;-57
2023/11/24 00:03:09;;;;;;;26.13;14.47;;;1.70;99.90;;;;;;4194704;28;20269;-59
2023/11/24 00:05:10;;;;;;;27.40;15.30;;;1.70;99.90;;;;;;4193897;28;20265;-58
2023/11/24 00:07:11;;;;;;;26.37;14.37;;;1.70;99.90;;;;;;4194853;28;20266;-54
2023/11/24 00:09:13;;;;;;;30.67;16.67;;;1.60;99.90;;;;;;4193833;28;20874;-59
2023/11/24 00:11:15;;;;;;;27.63;15.50;;;1.50;99.90;;;;;;4194024;28;20312;-58
2023/11/24 00:13:17;;;;;;;31.37;17.33;;;1.40;99.90;;;;;;4194425;28;20282;-60
2023/11/24 00:15:19;;;;;;;31.43;15.33;;;1.30;99.90;;;;;;4194018;28;20281;-59
2023/11/24 00:17:21;;;;;;;31.80;16.57;;;1.30;99.90;;;;;;4194400;28;20285;-59
2023/11/24 00:19:23;;;;;;;28.47;15.17;;;1.10;99.90;;;;;;4194205;28;20346;-58
2023/11/24 00:21:24;;;;;;;29.97;16.77;;;1.00;99.90;;;;;;4194820;28;20307;-58
2023/11/24 00:23:25;;;;;;;33.63;15.90;;;0.80;99.90;;;;;;4194110;28;20316;-60
2023/11/24 00:25:27;;;;;;;28.10;14.57;;;0.80;99.90;;;;;;4194476;28;20277;-58
2023/11/24 00:27:29;;;;;;;34.40;16.30;;;0.70;99.90;;;;;;4174258;28;20270;-59
2023/11/24 00:29:31;;;;;;;29.03;15.87;;;0.70;99.90;;;;;;4193878;28;20342;-60
2023/11/24 00:31:32;;;;;;;31.73;16.53;;;0.70;99.90;;;;;;4193938;28;20278;-58
2023/11/24 00:33:37;;;;;;;37.30;17.17;;;0.70;99.90;;;;;;4194581;28;20625;-55
2023/11/24 00:35:39;;;;;;;31.73;16.10;;;0.70;99.90;;;;;;4194376;28;20269;-58
2023/11/24 00:37:40;;;;;;;33.37;16.60;;;0.70;99.90;;;;;;4193583;28;20757;-59
2023/11/24 00:39:42;;;;;;;29.43;16.97;;;0.80;99.90;;;;;;4193517;28;20769;-57
2023/11/24 00:41:43;;;;;;;33.83;16.33;;;0.70;99.90;;;;;;4194371;28;20274;-58
2023/11/24 00:43:46;;;;;;;29.97;15.70;;;0.70;99.90;;;;;;4194228;28;20307;-58
2023/11/24 00:45:47;;;;;;;33.00;17.57;;;0.70;99.90;;;;;;4193209;28;20265;-58
2023/11/24 00:47:48;;;;;;;36.17;17.07;;;0.60;99.90;;;;;;4192004;28;20262;-61
2023/11/24 00:49:49;;;;;;;33.53;17.90;;;0.60;99.90;;;;;;4193217;28;20406;-61
2023/11/24 00:51:50;;;;;;;35.00;17.47;;;0.60;99.90;;;;;;4193273;28;20266;-60
2023/11/24 00:53:52;;;;;;;34.13;17.50;;;0.50;99.90;;;;;;4193031;28;20277;-58
2023/11/24 00:55:54;;;;;;;36.70;17.10;;;0.50;99.90;;;;;;4192755;28;20351;-60
2023/11/24 00:57:55;;;;;;;29.50;15.60;;;0.50;99.90;;;;;;4192820;28;20270;-59
2023/11/24 00:59:56;;;;;;;29.80;16.03;;;0.40;99.90;;;;;;4192746;28;20250;-59
2023/11/24 01:01:58;;;;;;;32.20;17.47;;;0.40;99.90;;;;;;4176078;28;20262;-57
2023/11/24 01:03:59;;;;;;;38.93;20.13;;;0.40;99.90;;;;;;4193627;28;20315;-59
2023/11/24 01:06:01;;;;;;;36.90;19.60;;;0.50;99.90;;;;;;4193738;28;20306;-58
2023/11/24 01:08:02;;;;;;;35.40;18.17;;;0.40;99.90;;;;;;4194357;28;20410;-58
2023/11/24 01:10:04;;;;;;;33.97;18.23;;;0.40;99.90;;;;;;4193268;28;20289;-55
2023/11/24 01:12:05;;;;;;;35.73;17.13;;;0.40;99.90;;;;;;4193605;28;20838;-58
2023/11/24 01:14:06;;;;;;;35.53;18.40;;;0.40;99.90;;;;;;4192978;28;20740;-57
2023/11/24 01:16:08;;;;;;;38.87;19.20;;;0.40;99.90;;;;;;4193852;28;20258;-59
2023/11/24 01:18:09;;;;;;;37.27;18.87;;;0.40;99.90;;;;;;4193440;28;20350;-58
2023/11/24 01:20:12;;;;;;;36.60;19.53;;;0.40;99.90;;;;;;4193220;28;20269;-58
2023/11/24 01:22:13;;;;;;;33.43;18.10;;;0.40;99.90;;;;;;4193671;28;20668;-58
2023/11/24 01:24:14;;;;;;;34.00;16.83;;;0.40;99.90;;;;;;4193690;28;20319;-57
2023/11/24 01:26:15;;;;;;;32.57;17.40;;;0.40;99.90;;;;;;4192947;28;20273;-57
2023/11/24 01:28:16;;;;;;;34.50;18.87;;;0.40;99.90;;;;;;4192307;28;20277;-56
2023/11/24 01:30:17;;;;;;;32.73;17.17;;;0.40;99.90;;;;;;4193717;28;20297;-57
2023/11/24 01:32:19;;;;;;;32.00;17.47;;;0.40;99.90;;;;;;4193627;28;20254;-59
2023/11/24 01:34:20;;;;;;;36.17;17.97;;;0.30;99.90;;;;;;4174669;28;20328;-59
2023/11/24 01:36:21;;;;;;;34.83;17.70;;;0.40;99.90;;;;;;4192541;28;20338;-58
2023/11/24 01:38:23;;;;;;;36.70;18.13;;;0.30;99.90;;;;;;4192896;28;20363;-58
2023/11/24 01:40:24;;;;;;;34.40;16.03;;;0.30;99.90;;;;;;4193483;28;20376;-58
2023/11/24 01:42:25;;;;;;;38.07;18.57;;;0.30;99.90;;;;;;4192982;28;20269;-59
2023/11/24 01:44:27;;;;;;;33.83;17.73;;;0.30;99.90;;;;;;4192325;28;20330;-59
2023/11/24 01:46:29;;;;;;;33.63;16.93;;;0.30;99.90;;;;;;4193576;28;20311;-58
2023/11/24 01:48:31;;;;;;;32.30;15.97;;;0.20;99.90;;;;;;4192000;28;20254;-58
2023/11/24 01:50:32;;;;;;;36.13;17.90;;;0.20;99.90;;;;;;4193229;28;20373;-58
2023/11/24 01:52:34;;;;;;;40.33;19.03;;;0.20;99.90;;;;;;4192247;28;20731;-59
2023/11/24 01:54:37;;;;;;;35.60;17.40;;;0.10;99.90;;;;;;4192329;28;20683;-58
2023/11/24 01:56:39;;;;;;;33.77;16.40;;;0.10;99.90;;;;;;4193219;28;20281;-58
2023/11/24 01:58:41;;;;;;;32.53;17.20;;;0.00;99.90;;;;;;4193264;28;20261;-58
2023/11/24 02:00:44;;;;;;;31.27;16.83;;;-0.10;99.90;;;;;;4192287;28;20277;-57
2023/11/24 02:02:45;;;;;;;27.87;15.23;;;-0.20;99.90;;;;;;4193131;28;20319;-57
2023/11/24 02:04:47;;;;;;;37.80;17.20;;;-0.30;99.90;;;;;;4192369;28;20277;-58
2023/11/24 02:06:49;;;;;;;30.17;16.90;;;-0.30;99.90;;;;;;4193093;28;20270;-57
2023/11/24 02:08:51;;;;;;;34.57;17.20;;;-0.30;99.90;;;;;;4193618;28;20331;-56
2023/11/24 02:10:52;;;;;;;33.30;17.27;;;-0.30;99.90;;;;;;4192612;28;20795;-58
2023/11/24 02:12:53;;;;;;;33.93;17.53;;;-0.20;99.90;;;;;;4192146;28;20289;-58
2023/11/24 02:14:54;;;;;;;33.00;17.27;;;-0.20;99.90;;;;;;4192186;28;20285;-58
2023/11/24 02:16:55;;;;;;;34.97;18.07;;;-0.10;99.90;;;;;;4193064;28;20737;-55
2023/11/24 02:18:56;;;;;;;37.33;18.57;;;0.00;99.90;;;;;;4192383;28;20261;-55
2023/11/24 02:21:00;;;;;;;31.53;15.80;;;-0.10;99.90;;;;;;4192408;28;20319;-58
2023/11/24 02:23:01;;;;;;;33.67;16.77;;;0.00;99.90;;;;;;4192846;28;20367;-59
2023/11/24 02:25:03;;;;;;;31.83;16.30;;;-0.10;99.90;;;;;;4192942;28;20322;-59
2023/11/24 02:27:07;;;;;;;44.10;17.50;;;-0.10;99.90;;;;;;4192842;28;20698;-57
2023/11/24 02:29:09;;;;;;;36.03;17.87;;;0.00;99.90;;;;;;4191940;28;20652;-58
2023/11/24 02:31:11;;;;;;;34.97;18.07;;;0.00;99.90;;;;;;4192519;28;20304;-58
2023/11/24 02:33:13;;;;;;;38.20;17.17;;;-0.10;99.90;;;;;;4191422;28;20311;-59
2023/11/24 02:35:14;;;;;;;37.80;18.23;;;-0.10;99.90;;;;;;4191936;28;20363;-59
2023/11/24 02:37:17;;;;;;;39.20;18.70;;;-0.10;99.90;;;;;;4191737;28;20283;-59
2023/11/24 02:39:18;;;;;;;31.93;16.53;;;-0.10;99.90;;;;;;4193052;28;20312;-58
2023/11/24 02:41:22;;;;;;;33.07;16.67;;;-0.10;99.90;;;;;;4192785;28;20265;-57
2023/11/24 02:43:24;;;;;;;32.07;16.23;;;-0.20;99.90;;;;;;4191708;28;20307;-54
2023/11/24 02:45:25;;;;;;;31.03;16.07;;;-0.20;99.90;;;;;;4192543;28;20722;-58
2023/11/24 02:47:26;;;;;;;32.17;15.53;;;-0.20;99.90;;;;;;4192539;28;20265;-58
2023/11/24 02:49:28;;;;;;;31.10;15.83;;;-0.20;99.90;;;;;;4190334;28;20339;-59
2023/11/24 02:51:29;;;;;;;34.00;16.83;;;-0.10;99.90;;;;;;4191351;28;20297;-56
2023/11/24 02:53:30;;;;;;;29.17;15.07;;;-0.10;99.90;;;;;;4191905;28;20323;-58
2023/11/24 02:55:31;;;;;;;30.90;15.87;;;-0.10;99.90;;;;;;4192247;28;20266;-56
2023/11/24 02:57:32;;;;;;;27.43;14.30;;;-0.10;99.90;;;;;;4191626;28;20273;-59
2023/11/24 02:59:34;;;;;;;31.53;14.83;;;0.00;99.90;;;;;;4191792;28;20838;-54
2023/11/24 03:01:35;;;;;;;27.43;13.93;;;0.00;99.90;;;;;;4191056;28;20335;-58
2023/11/24 03:03:37;;;;;;;25.37;12.90;;;0.10;99.90;;;;;;4192595;28;20334;-57
2023/11/24 03:05:38;;;;;;;30.30;14.97;;;0.10;99.90;;;;;;4191466;28;20257;-56
2023/11/24 03:07:39;;;;;;;27.97;14.07;;;0.10;99.90;;;;;;4191877;28;20327;-59
2023/11/24 03:09:40;;;;;;;24.17;12.57;;;0.10;99.90;;;;;;4192193;28;20279;-58
2023/11/24 03:11:42;;;;;;;25.30;12.30;;;0.10;99.90;;;;;;4192411;28;20323;-56
2023/11/24 03:13:44;;;;;;;23.70;12.73;;;0.20;99.90;;;;;;4191466;28;20315;-58
2023/11/24 03:15:46;;;;;;;25.27;13.27;;;0.20;99.90;;;;;;4191804;28;20269;-60
2023/11/24 03:17:47;;;;;;;30.43;12.50;;;0.20;99.90;;;;;;4192297;28;20299;-56
2023/11/24 03:19:49;;;;;;;24.13;12.53;;;0.20;99.90;;;;;;4191554;28;20331;-59
2023/11/24 03:21:50;;;;;;;25.57;13.00;;;0.30;99.90;;;;;;4191528;28;20323;-60
2023/11/24 03:23:51;;;;;;;27.17;13.77;;;0.30;99.90;;;;;;4192112;28;20262;-57
2023/11/24 03:25:52;;;;;;;27.50;13.10;;;0.30;99.90;;;;;;4192286;28;20319;-56
2023/11/24 03:27:54;;;;;;;28.90;12.83;;;0.30;99.90;;;;;;4192037;28;20967;-58
2023/11/24 03:29:55;;;;;;;29.97;13.67;;;0.40;99.90;;;;;;4192170;28;20257;-57
2023/11/24 03:31:56;;;;;;;26.20;12.70;;;0.40;99.90;;;;;;4191275;28;20758;-55
2023/11/24 03:33:59;;;;;;;24.97;13.17;;;0.40;99.90;;;;;;4191488;28;20334;-59
2023/11/24 03:36:00;;;;;;;25.83;12.83;;;0.40;99.90;;;;;;4192053;28;20812;-58
2023/11/24 03:38:01;;;;;;;25.03;13.00;;;0.50;99.90;;;;;;4191942;28;20392;-60
2023/11/24 03:40:03;;;;;;;25.63;12.70;;;0.50;99.90;;;;;;4192283;28;20269;-54
2023/11/24 03:42:04;;;;;;;24.93;12.97;;;0.60;99.90;;;;;;4191463;28;20704;-56
2023/11/24 03:44:05;;;;;;;19.83;11.50;;;0.60;99.90;;;;;;4190878;28;20254;-60
2023/11/24 03:46:06;;;;;;;22.70;12.43;;;0.60;99.90;;;;;;4191281;28;20424;-59
2023/11/24 03:48:08;;;;;;;25.60;11.37;;;0.60;99.90;;;;;;4192162;28;20253;-58
2023/11/24 03:50:10;;;;;;;23.40;12.20;;;0.60;99.90;;;;;;4190931;28;20301;-59
2023/11/24 03:52:12;;;;;;;25.03;12.40;;;0.70;99.90;;;;;;4190129;28;20323;-57
2023/11/24 03:54:13;;;;;;;23.60;13.03;;;0.60;99.90;;;;;;4190928;28;20807;-58
2023/11/24 03:56:15;;;;;;;20.53;11.70;;;0.70;99.90;;;;;;4192001;28;20261;-56
2023/11/24 03:58:16;;;;;;;21.63;12.43;;;0.70;99.90;;;;;;4190964;28;20253;-57
2023/11/24 04:00:18;;;;;;;22.77;12.63;;;0.70;99.90;;;;;;4192048;28;20307;-60
2023/11/24 04:02:19;;;;;;;22.53;11.10;;;0.70;99.90;;;;;;4193504;28;20292;-56
2023/11/24 04:04:20;;;;;;;20.57;11.00;;;0.80;99.90;;;;;;4194117;28;20274;-59
2023/11/24 04:06:21;;;;;;;23.10;11.93;;;0.70;99.90;;;;;;4193838;28;20295;-59
2023/11/24 04:08:24;;;;;;;24.47;11.83;;;0.80;99.90;;;;;;4194399;28;20281;-56
2023/11/24 04:10:25;;;;;;;22.47;12.83;;;0.70;99.90;;;;;;4193916;28;20403;-58
2023/11/24 04:12:26;;;;;;;25.27;13.13;;;0.80;99.90;;;;;;4193819;28;20289;-59
2023/11/24 04:14:27;;;;;;;28.73;14.30;;;0.80;99.90;;;;;;4194165;28;20262;-58
2023/11/24 04:16:29;;;;;;;21.90;12.73;;;0.80;99.90;;;;;;4194864;28;20796;-59
2023/11/24 04:18:30;;;;;;;25.03;13.40;;;0.70;99.90;;;;;;4193481;28;20277;-56
2023/11/24 04:20:31;;;;;;;26.63;13.13;;;0.70;99.90;;;;;;4194714;28;20687;-59
2023/11/24 04:22:34;;;;;;;25.40;13.57;;;0.70;99.90;;;;;;4194644;28;20269;-58
2023/11/24 04:24:35;;;;;;;22.13;12.67;;;0.70;99.90;;;;;;4194148;28;20335;-59
2023/11/24 04:26:36;;;;;;;24.50;12.47;;;0.70;99.90;;;;;;4194374;28;20277;-58
2023/11/24 04:28:37;;;;;;;20.73;11.83;;;0.70;99.90;;;;;;4194096;28;20331;-59
2023/11/24 04:30:38;;;;;;;25.47;12.77;;;0.70;99.90;;;;;;4192989;28;20297;-60
2023/11/24 04:32:39;;;;;;;25.83;11.90;;;0.70;99.90;;;;;;4194514;28;20261;-58
2023/11/24 04:34:41;;;;;;;23.53;11.57;;;0.70;99.90;;;;;;4194372;28;20274;-60
2023/11/24 04:36:42;;;;;;;24.93;11.77;;;0.80;99.90;;;;;;4194043;28;20277;-58
2023/11/24 04:38:45;;;;;;;26.07;12.30;;;0.80;99.90;;;;;;4194581;28;20327;-57
2023/11/24 04:40:46;;;;;;;22.60;11.40;;;0.90;99.90;;;;;;4193517;28;20299;-59
2023/11/24 04:42:47;;;;;;;25.37;11.10;;;0.90;99.90;;;;;;4193714;28;20327;-60
2023/11/24 04:44:48;;;;;;;20.23;11.37;;;1.00;99.90;;;;;;4193140;28;20668;-57
2023/11/24 04:46:50;;;;;;;20.77;11.33;;;1.00;99.90;;;;;;4193273;28;20327;-59
2023/11/24 04:48:51;;;;;;;22.43;11.87;;;1.00;99.90;;;;;;4193601;28;20253;-59
2023/11/24 04:50:53;;;;;;;21.90;11.67;;;1.00;99.90;;;;;;4175759;28;20302;-57
2023/11/24 04:52:54;;;;;;;22.07;11.90;;;1.00;99.90;;;;;;4192933;28;20669;-60
2023/11/24 04:54:55;;;;;;;21.47;11.47;;;1.00;99.90;;;;;;4193942;28;20276;-57
2023/11/24 04:56:56;;;;;;;21.07;11.77;;;1.00;99.90;;;;;;4192797;28;20660;-59
2023/11/24 04:58:57;;;;;;;23.03;12.43;;;0.90;99.90;;;;;;4193407;28;20265;-59
2023/11/24 05:00:58;;;;;;;22.97;10.57;;;1.00;99.90;;;;;;4193139;28;20314;-61
2023/11/24 05:03:00;;;;;;;23.43;12.03;;;1.00;99.90;;;;;;4192366;28;20281;-60
2023/11/24 05:05:01;;;;;;;23.60;12.10;;;1.00;99.90;;;;;;4192943;28;20274;-58
2023/11/24 05:07:03;;;;;;;27.13;13.33;;;1.00;99.90;;;;;;4193161;28;20273;-59
2023/11/24 05:09:04;;;;;;;25.43;13.37;;;1.00;99.90;;;;;;4194015;28;20265;-58
2023/11/24 05:11:06;;;;;;;29.17;14.93;;;1.00;99.90;;;;;;4191675;28;20296;-57
2023/11/24 05:13:07;;;;;;;28.03;14.67;;;1.00;99.90;;;;;;4191642;28;20335;-58
2023/11/24 05:15:08;;;;;;;31.27;15.70;;;1.10;99.90;;;;;;4192678;28;20327;-58
2023/11/24 05:17:09;;;;;;;27.20;14.00;;;1.10;99.90;;;;;;4192655;28;20277;-59
2023/11/24 05:19:10;;;;;;;24.37;13.23;;;1.10;99.90;;;;;;4192646;28;20684;-58
2023/11/24 05:21:12;;;;;;;24.03;12.10;;;1.10;99.90;;;;;;4193173;28;20305;-61
2023/11/24 05:23:14;;;;;;;21.53;12.63;;;1.10;99.90;;;;;;4192561;28;20330;-60
2023/11/24 05:25:15;;;;;;;26.03;12.77;;;1.10;99.90;;;;;;4193260;28;20331;-61
2023/11/24 05:27:16;;;;;;;22.57;11.83;;;1.10;99.90;;;;;;4192801;28;20249;-60
2023/11/24 05:29:17;;;;;;;22.03;11.00;;;1.20;99.90;;;;;;4191764;28;20281;-59
2023/11/24 05:31:18;;;;;;;24.07;11.40;;;1.20;99.90;;;;;;4192386;28;20297;-61
2023/11/24 05:33:20;;;;;;;28.97;12.60;;;1.10;99.90;;;;;;4192626;28;20323;-61
2023/11/24 05:35:21;;;;;;;20.77;10.50;;;1.20;99.90;;;;;;4192660;28;20265;-59
2023/11/24 05:37:22;;;;;;;17.17;9.87;;;1.20;99.90;;;;;;4192670;28;20273;-57
2023/11/24 05:39:23;;;;;;;17.63;9.83;;;1.20;99.90;;;;;;4192634;28;20331;-59
2023/11/24 05:41:26;;;;;;;18.67;9.37;;;1.20;99.90;;;;;;4189122;28;20285;-58
2023/11/24 05:43:27;;;;;;;18.00;9.17;;;1.20;99.90;;;;;;4190241;28;20351;-60
2023/11/24 05:45:29;;;;;;;17.83;10.03;;;1.20;99.90;;;;;;4191550;28;20617;-57
2023/11/24 05:47:31;;;;;;;17.00;10.17;;;1.20;99.90;;;;;;4191747;28;20851;-58
2023/11/24 05:49:33;;;;;;;25.93;9.63;;;1.20;99.90;;;;;;4193294;28;20795;-58
2023/11/24 05:51:34;;;;;;;20.07;11.27;;;1.20;99.90;;;;;;4192923;28;20297;-58
2023/11/24 05:53:35;;;;;;;20.77;10.77;;;1.20;99.90;;;;;;4193042;28;20253;-59
2023/11/24 05:55:36;;;;;;;18.47;9.97;;;1.20;99.90;;;;;;4190455;28;20292;-59
2023/11/24 05:57:37;;;;;;;20.03;9.93;;;1.20;99.90;;;;;;4191534;28;20764;-58
2023/11/24 05:59:39;;;;;;;19.27;10.73;;;1.20;99.90;;;;;;4192676;28;20694;-59
2023/11/24 06:01:42;;;;;;;19.97;10.87;;;1.30;99.90;;;;;;4192320;28;20293;-55
2023/11/24 06:03:43;;;;;;;22.07;10.23;;;1.30;99.90;;;;;;4191393;28;20327;-56
2023/11/24 06:05:44;;;;;;;19.60;10.13;;;1.30;99.90;;;;;;4192582;28;20307;-61
2023/11/24 06:07:45;;;;;;;22.70;10.53;;;1.40;99.90;;;;;;4192325;28;20375;-57
2023/11/24 06:09:46;;;;;;;21.20;10.10;;;1.40;99.90;;;;;;4192626;28;20269;-59
2023/11/24 06:11:47;;;;;;;19.47;10.23;;;1.40;99.90;;;;;;4190888;28;20297;-58
2023/11/24 06:13:48;;;;;;;22.47;10.43;;;1.40;99.90;;;;;;4190817;28;20297;-58
2023/11/24 06:15:50;;;;;;;24.00;11.40;;;1.50;99.90;;;;;;4192720;28;20265;-57
2023/11/24 06:17:51;;;;;;;19.67;10.27;;;1.50;99.90;;;;;;4192605;28;20330;-59
2023/11/24 06:19:52;;;;;;;20.43;11.07;;;1.50;99.90;;;;;;4191882;28;20617;-57
2023/11/24 06:21:54;;;;;;;25.03;11.50;;;1.50;99.90;;;;;;4191508;28;21057;-59
2023/11/24 06:23:55;;;;;;;20.97;11.20;;;1.60;99.90;;;;;;4192059;28;20334;-58
2023/11/24 06:25:56;;;;;;;29.63;12.17;;;1.60;99.90;;;;;;4190850;28;20269;-55
2023/11/24 06:27:58;;;;;;;29.47;11.63;;;1.70;99.90;;;;;;4191092;28;20775;-56
2023/11/24 06:29:59;;;;;;;26.33;12.80;;;1.70;99.90;;;;;;4191152;28;20311;-60
2023/11/24 06:32:00;;;;;;;21.93;11.40;;;1.80;99.90;;;;;;4192249;28;20830;-59
2023/11/24 06:34:01;;;;;;;23.57;10.80;;;1.80;99.90;;;;;;4191628;28;20262;-59
2023/11/24 06:36:02;;;;;;;23.47;11.23;;;1.90;99.90;;;;;;4191831;28;20327;-58
2023/11/24 06:38:03;;;;;;;23.73;10.50;;;1.90;99.90;;;;;;4179421;28;20269;-58
2023/11/24 06:40:06;;;;;;;21.53;10.63;;;1.90;99.90;;;;;;4182032;28;20312;-58
2023/11/24 06:42:08;;;;;;;18.80;10.50;;;2.00;99.90;;;;;;4190545;28;20319;-58
2023/11/24 06:44:09;;;;;;;22.13;11.00;;;2.00;99.90;;;;;;4192641;28;20287;-57
2023/11/24 06:46:11;;;;;;;22.03;11.33;;;2.00;99.90;;;;;;4191182;28;20322;-54
2023/11/24 06:48:13;;;;;;;28.27;13.70;;;2.00;99.90;;;;;;4188772;28;20373;-56
2023/11/24 06:50:14;;;;;;;25.30;12.10;;;2.10;99.90;;;;;;4188269;28;20285;-58
2023/11/24 06:52:15;;;;;;;25.10;12.10;;;2.10;99.90;;;;;;4176193;28;21110;-58
2023/11/24 06:54:16;;;;;;;21.40;10.77;;;2.20;99.90;;;;;;4191041;28;20269;-58
2023/11/24 06:56:18;;;;;;;22.77;11.10;;;2.30;99.90;;;;;;4184309;28;20372;-58
2023/11/24 06:58:19;;;;;;;20.43;10.60;;;2.40;99.90;;;;;;4183462;28;20262;-58
2023/11/24 07:00:20;;;;;;;20.43;10.27;;;2.50;99.90;;;;;;4191031;28;20262;-59
2023/11/24 07:02:22;;;;;;;22.47;10.90;;;2.70;99.90;;;;;;4191735;28;20315;-58
2023/11/24 07:04:23;;;;;;;23.73;12.03;;;2.60;99.90;;;;;;4191232;28;20637;-58
2023/11/24 07:06:24;;;;;;;27.93;12.17;;;2.70;99.90;;;;;;4191566;28;20269;-56
2023/11/24 07:08:26;;;;;;;27.23;15.60;;;2.70;99.90;;;;;;4188090;28;20277;-58
2023/11/24 07:10:27;;;;;;;23.23;11.77;;;3.00;99.90;;;;;;4192309;28;20274;-58
2023/11/24 07:12:28;;;;;;;20.27;10.47;;;3.30;99.90;;;;;;4190645;28;20343;-58
2023/11/24 07:14:29;;;;;;;26.17;11.20;;;3.30;99.90;;;;;;4191776;28;20335;-59
2023/11/24 07:16:30;;;;;;;19.07;11.27;;;3.30;99.90;;;;;;4191202;28;20676;-58
2023/11/24 07:18:32;;;;;;;22.33;11.73;;;3.30;99.90;;;;;;4173980;28;20434;-58
2023/11/24 07:20:34;;;;;;;23.37;12.33;;;3.30;99.90;;;;;;4190901;28;20454;-58
2023/11/24 07:22:35;;;;;;;26.90;12.50;;;3.50;99.90;;;;;;4202016;28;20261;-58
2023/11/24 07:24:38;;;;;;;25.57;13.07;;;3.50;99.90;;;;;;4188099;28;20427;-59
2023/11/24 07:26:39;;;;;;;22.87;11.00;;;3.40;99.90;;;;;;4185449;28;20277;-59
2023/11/24 07:28:44;;;;;;;22.63;10.90;;;3.30;99.90;;;;;;4200807;28;20627;-58
2023/11/24 07:30:46;;;;;;;24.23;10.63;;;3.10;99.90;;;;;;4192482;28;20273;-58
2023/11/24 07:32:50;;;;;;;36.50;11.97;;;3.00;99.90;;;;;;4180496;28;20343;-58
2023/11/24 07:34:52;;;;;;;23.07;11.83;;;3.00;99.90;;;;;;4175286;28;20274;-54
2023/11/24 07:36:53;;;;;;;25.67;12.43;;;3.00;99.90;;;;;;4191470;28;20771;-58
2023/11/24 07:38:54;;;;;;;25.57;12.17;;;2.90;99.90;;;;;;4194549;28;20321;-59
2023/11/24 07:40:55;;;;;;;28.83;12.43;;;2.90;99.90;;;;;;4194769;28;20274;-59
2023/11/24 07:42:57;;;;;;;25.43;13.00;;;2.90;99.90;;;;;;4195251;28;20261;-59
2023/11/24 07:44:58;;;;;;;25.23;12.93;;;2.90;99.90;;;;;;4194544;28;20273;-57
2023/11/24 07:47:00;;;;;;;25.20;13.73;;;2.90;99.90;;;;;;4194687;28;20738;-59
2023/11/24 07:49:03;;;;;;;25.90;11.80;;;2.90;99.90;;;;;;4186204;28;20274;-57
2023/11/24 07:51:05;;;;;;;21.70;11.50;;;2.90;99.90;;;;;;4178785;28;20312;-58
2023/11/24 07:53:06;;;;;;;21.23;11.50;;;2.90;99.90;;;;;;4178366;28;20312;-58
2023/11/24 07:55:08;;;;;;;19.23;11.23;;;2.90;99.90;;;;;;4189223;28;20830;-58
2023/11/24 07:57:09;;;;;;;21.37;11.03;;;2.90;99.90;;;;;;4194052;28;20270;-55
2023/11/24 07:59:11;;;;;;;19.17;10.53;;;2.90;99.90;;;;;;4193720;28;20332;-59
2023/11/24 08:01:13;;;;;;;27.80;11.20;;;2.90;99.90;;;;;;4193794;28;20273;-58
2023/11/24 08:03:16;;;;;;;17.27;9.43;;;2.90;99.90;;;;;;4194964;28;20319;-57
2023/11/24 08:05:17;;;;;;;20.70;9.73;;;2.90;99.90;;;;;;4194713;28;20307;-55
2023/11/24 08:07:18;;;;;;;17.17;8.50;;;2.90;99.90;;;;;;4193953;28;20278;-59
2023/11/24 08:09:20;;;;;;;22.30;9.00;;;2.90;99.90;;;;;;4194020;28;20350;-56
2023/11/24 08:11:23;;;;;;;22.63;9.67;;;2.80;99.90;;;;;;4193496;28;20713;-56
2023/11/24 08:13:24;;;;;;;41.60;11.17;;;2.80;99.90;;;;;;4193606;28;20338;-58
2023/11/24 08:15:25;;;;;;;19.23;9.97;;;2.80;99.90;;;;;;4194306;28;20306;-58
2023/11/24 08:17:27;;;;;;;18.00;9.63;;;2.80;99.90;;;;;;4194410;28;20269;-55
2023/11/24 08:19:28;;;;;;;21.27;10.80;;;2.80;99.90;;;;;;4194538;28;20342;-55
2023/11/24 08:21:29;;;;;;;22.97;10.30;;;2.80;99.90;;;;;;4194841;28;20273;-58
2023/11/24 08:23:30;;;;;;;22.87;9.63;;;2.80;99.90;;;;;;4194582;28;20253;-58
2023/11/24 08:25:31;;;;;;;19.90;10.20;;;2.80;99.90;;;;;;4193960;28;20795;-58
2023/11/24 08:27:33;;;;;;;22.57;10.63;;;2.80;99.90;;;;;;4180532;28;20253;-58
2023/11/24 08:29:34;;;;;;;21.77;10.57;;;2.80;99.90;;;;;;4193605;28;20314;-59
2023/11/24 08:31:35;;;;;;;25.27;11.33;;;2.90;99.90;;;;;;4194317;28;20289;-59
2023/11/24 08:33:36;;;;;;;24.93;11.80;;;2.90;99.90;;;;;;4193077;28;20827;-57
2023/11/24 08:35:38;;;;;;;23.53;11.67;;;2.90;99.90;;;;;;4192709;28;20269;-60
2023/11/24 08:37:39;;;;;;;30.27;11.50;;;2.90;99.90;;;;;;4192583;28;20258;-59
2023/11/24 08:39:40;;;;;;;36.17;17.57;;;3.00;99.90;;;;;;4193755;28;20307;-57
2023/11/24 08:41:47;;;;;;;42.13;18.60;;;3.00;99.90;;;;;;4193664;28;20595;-56
2023/11/24 08:43:48;;;;;;;36.50;16.50;;;3.00;99.90;;;;;;4194136;28;20757;-59
2023/11/24 08:45:50;;;;;;;28.90;13.97;;;3.00;99.90;;;;;;4179806;28;20626;-56
2023/11/24 08:47:51;;;;;;;39.07;18.00;;;3.00;99.90;;;;;;4186462;28;20382;-57
2023/11/24 08:49:52;;;;;;;33.67;17.27;;;3.10;99.90;;;;;;4194296;28;20326;-56
2023/11/24 08:51:53;;;;;;;27.00;12.57;;;3.10;99.90;;;;;;4192733;28;20293;-58
2023/11/24 08:53:55;;;;;;;25.27;12.90;;;3.10;99.90;;;;;;4193778;28;20311;-58
2023/11/24 08:55:56;;;;;;;25.57;11.80;;;3.10;99.90;;;;;;4193740;28;20327;-58
2023/11/24 08:57:59;;;;;;;24.67;12.40;;;3.10;99.90;;;;;;4193985;28;20261;-58
2023/11/24 09:00:00;;;;;;;23.30;12.00;;;3.10;99.90;;;;;;4192056;28;20249;-59
2023/11/24 09:02:04;;;;;;;28.03;12.80;;;3.20;99.90;;;;;;4177205;28;20270;-57
2023/11/24 09:04:05;;;;;;;29.47;14.57;;;3.20;99.90;;;;;;4187864;28;20339;-58
2023/11/24 09:06:06;;;;;;;32.20;11.83;;;3.20;99.90;;;;;;4193493;28;20327;-57
2023/11/24 09:08:07;;;;;;;22.03;11.07;;;3.20;99.90;;;;;;4192172;28;21073;-59
2023/11/24 09:10:09;;;;;;;24.27;10.10;;;3.20;99.90;;;;;;4192927;28;20262;-58
2023/11/24 09:12:12;;;;;;;18.90;10.20;;;3.20;99.90;;;;;;4192736;28;20986;-58
2023/11/24 09:14:13;;;;;;;21.37;10.83;;;3.20;99.90;;;;;;4192362;28;20677;-58
2023/11/24 09:16:17;;;;;;;19.50;10.43;;;3.20;99.90;;;;;;4193395;28;20258;-57
2023/11/24 09:18:18;;;;;;;22.73;10.73;;;3.20;99.90;;;;;;4175863;28;20262;-58
2023/11/24 09:20:19;;;;;;;24.13;10.83;;;3.20;99.90;;;;;;4193187;28;20269;-58
2023/11/24 09:22:20;;;;;;;25.60;12.47;;;3.30;99.90;;;;;;4193482;28;20253;-58
2023/11/24 09:24:22;;;;;;;26.30;11.60;;;3.30;99.90;;;;;;4193064;28;20269;-58
2023/11/24 09:26:23;;;;;;;23.53;11.43;;;3.30;99.90;;;;;;4192539;28;20274;-60
2023/11/24 09:28:24;;;;;;;24.90;12.17;;;3.30;99.90;;;;;;4182758;28;20304;-59
2023/11/24 09:30:25;;;;;;;23.77;11.77;;;3.40;99.90;;;;;;4176370;28;20934;-58
2023/11/24 09:32:27;;;;;;;31.90;13.93;;;3.40;99.90;;;;;;4179297;28;20285;-58
2023/11/24 09:34:28;;;;;;;24.00;12.63;;;3.40;99.90;;;;;;4190788;28;20281;-59
2023/11/24 09:36:29;;;;;;;20.57;11.03;;;3.50;99.90;;;;;;4191687;28;20281;-59
2023/11/24 09:38:31;;;;;;;27.40;11.63;;;3.50;99.90;;;;;;4191909;28;20282;-59
2023/11/24 09:40:33;;;;;;;19.40;9.67;;;3.60;99.90;;;;;;4191556;28;20392;-57
2023/11/24 09:42:40;;;;;;;18.40;9.67;;;3.60;99.90;;;;;;4192151;28;20316;-58
2023/11/24 09:44:42;;;;;;;22.37;10.40;;;3.70;99.90;;;;;;4193188;28;20257;-60
2023/11/24 09:46:44;;;;;;;20.17;9.90;;;3.70;99.90;;;;;;4192823;28;20261;-58
2023/11/24 09:48:47;;;;;;;15.97;8.50;;;3.70;99.90;;;;;;4192898;28;20265;-57
2023/11/24 09:50:50;;;;;;;22.33;7.90;;;3.70;99.90;;;;;;4192847;28;20594;-57
2023/11/24 09:52:56;;;;;;;15.70;8.33;;;3.70;99.90;;;;;;4192987;28;20652;-57
2023/11/24 09:54:59;;;;;;;14.03;8.13;;;3.70;99.90;;;;;;4192614;28;20330;-59
2023/11/24 09:57:00;;;;;;;19.17;7.13;;;3.70;99.90;;;;;;4191504;28;20326;-54
2023/11/24 09:59:12;;;;;;;14.47;7.13;;;3.60;99.90;;;;;;4192018;28;20819;-54
2023/11/24 10:01:23;;;;;;;16.03;6.97;;;3.60;99.90;;;;;;4192662;28;20307;-58
2023/11/24 10:03:27;;;;;;;13.43;6.77;;;3.60;99.90;;;;;;4192459;28;20273;-58
2023/11/24 10:05:29;;;;;;;24.37;8.47;;;3.70;99.90;;;;;;4192828;28;20414;-56
2023/11/24 10:07:30;;;;;;;34.23;11.40;;;3.70;99.90;;;;;;4191703;28;20265;-58
2023/11/24 10:09:33;;;;;;;21.97;9.37;;;3.70;99.90;;;;;;4192130;28;20346;-57
2023/11/24 10:11:38;;;;;;;26.23;9.87;;;3.70;99.90;;;;;;4191615;28;20361;-58
2023/11/24 10:13:43;;;;;;;24.93;9.57;;;3.80;99.90;;;;;;4191994;28;20760;-58
2023/11/24 10:15:51;;;;;;;17.00;9.00;;;3.80;99.90;;;;;;4190574;28;20269;-55
2023/11/24 10:17:53;;;;;;;22.47;9.53;;;3.80;99.90;;;;;;4191162;28;20277;-59
2023/11/24 10:19:55;;;;;;;22.43;8.97;;;3.80;99.90;;;;;;4192918;28;20290;-58
2023/11/24 10:21:56;;;;;;;25.37;9.77;;;3.90;99.90;;;;;;4191043;28;20327;-59
2023/11/24 10:23:58;;;;;;;23.20;9.73;;;3.90;99.90;;;;;;4191210;28;20102;-59
2023/11/24 10:26:01;;;;;;;20.53;10.17;;;3.80;99.90;;;;;;4190970;28;20297;-59